Minneapolis, Minnesota
Traffic Map
Current Weather Conditions
Minneapolis, Minnesota
Overcast
Overcast
-1°
Feels Like: -1°
Wind Chill: -1° Ceiling: 2500
Heat Index: -1° Visibility: 10mi
Dew Point: -7° Wind: 3mph
Humidity: 64% Direction: 180° (S)
Pressure: 30.27in Gusts: 0mph
Raw Report DataKMSP 031753Z 18003KT 10SM OVC025 M01/M07 A3027 RMK AO2 SLP263 60000 T10111072 11011 21017 58008
Traffic Incident Summary
Active as of:
Severity:
Category:
InformationThere was an issue retrieving the traffic information for this location. Please try a different location or try again shortly.
Advertisements
Track Severe Weather on mobile